sensor_id;sensor_type;location;lat;lon;timestamp;pressure;altitude;pressure_sealevel;temperature;humidity
74921;BME280;63483;47.384;8.860;2023-02-28T00:01:01;94762.03;;;-4.57;49.20
74921;BME280;63483;47.384;8.860;2023-02-28T00:03:26;94767.72;;;-4.52;48.61
74921;BME280;63483;47.384;8.860;2023-02-28T00:05:52;94764.88;;;-4.31;49.03
74921;BME280;63483;47.384;8.860;2023-02-28T00:08:17;94763.72;;;-4.26;48.75
74921;BME280;63483;47.384;8.860;2023-02-28T00:10:42;94764.53;;;-4.25;48.75
74921;BME280;63483;47.384;8.860;2023-02-28T00:13:08;94753.81;;;-4.02;48.27
74921;BME280;63483;47.384;8.860;2023-02-28T00:15:34;94762.22;;;-4.30;48.72
74921;BME280;63483;47.384;8.860;2023-02-28T00:17:59;94767.84;;;-4.23;48.77
74921;BME280;63483;47.384;8.860;2023-02-28T00:20:25;94765.16;;;-4.52;49.06
74921;BME280;63483;47.384;8.860;2023-02-28T00:22:52;94767.66;;;-4.20;48.31
74921;BME280;63483;47.384;8.860;2023-02-28T00:25:21;94763.50;;;-4.07;48.30
74921;BME280;63483;47.384;8.860;2023-02-28T00:27:47;94759.84;;;-4.03;47.60
74921;BME280;63483;47.384;8.860;2023-02-28T00:30:22;94770.22;;;-4.20;48.52
74921;BME280;63483;47.384;8.860;2023-02-28T00:32:49;94773.78;;;-4.39;48.71
74921;BME280;63483;47.384;8.860;2023-02-28T00:35:15;94775.88;;;-4.15;48.58
74921;BME280;63483;47.384;8.860;2023-02-28T00:37:41;94770.94;;;-4.18;48.56
74921;BME280;63483;47.384;8.860;2023-02-28T00:40:07;94763.84;;;-4.75;46.57
74921;BME280;63483;47.384;8.860;2023-02-28T00:42:36;94773.94;;;-4.72;48.99
74921;BME280;63483;47.384;8.860;2023-02-28T00:45:02;94763.28;;;-4.96;48.60
74921;BME280;63483;47.384;8.860;2023-02-28T00:47:31;94765.91;;;-5.14;49.74
74921;BME280;63483;47.384;8.860;2023-02-28T00:49:57;94760.28;;;-5.36;49.27
74921;BME280;63483;47.384;8.860;2023-02-28T00:52:22;94768.13;;;-5.57;49.83
74921;BME280;63483;47.384;8.860;2023-02-28T00:54:47;94761.56;;;-5.45;48.79
74921;BME280;63483;47.384;8.860;2023-02-28T00:57:13;94766.19;;;-5.52;47.45
74921;BME280;63483;47.384;8.860;2023-02-28T00:59:38;94757.38;;;-5.80;46.76
74921;BME280;63483;47.384;8.860;2023-02-28T01:02:03;94757.63;;;-5.35;51.02
74921;BME280;63483;47.384;8.860;2023-02-28T01:04:29;94750.38;;;-5.43;48.54
74921;BME280;63483;47.384;8.860;2023-02-28T01:06:54;94760.41;;;-5.55;48.12
74921;BME280;63483;47.384;8.860;2023-02-28T01:09:19;94761.97;;;-5.53;46.94
74921;BME280;63483;47.384;8.860;2023-02-28T01:11:45;94753.28;;;-5.66;50.87
74921;BME280;63483;47.384;8.860;2023-02-28T01:14:15;94751.31;;;-5.61;47.77
74921;BME280;63483;47.384;8.860;2023-02-28T01:16:40;94757.00;;;-5.22;50.94
74921;BME280;63483;47.384;8.860;2023-02-28T01:19:06;94750.56;;;-5.46;46.26
74921;BME280;63483;47.384;8.860;2023-02-28T01:21:31;94752.84;;;-5.41;49.83
74921;BME280;63483;47.384;8.860;2023-02-28T01:23:57;94757.63;;;-5.35;51.13
74921;BME280;63483;47.384;8.860;2023-02-28T01:26:23;94757.97;;;-5.41;50.66
74921;BME280;63483;47.384;8.860;2023-02-28T01:28:51;94756.34;;;-5.26;49.67
74921;BME280;63483;47.384;8.860;2023-02-28T01:31:17;94753.88;;;-4.80;48.02
74921;BME280;63483;47.384;8.860;2023-02-28T01:33:44;94755.38;;;-5.08;47.52
74921;BME280;63483;47.384;8.860;2023-02-28T01:36:12;94757.28;;;-4.95;47.83
74921;BME280;63483;47.384;8.860;2023-02-28T01:38:38;94766.72;;;-4.97;48.83
74921;BME280;63483;47.384;8.860;2023-02-28T01:41:04;94760.16;;;-5.01;50.37
74921;BME280;63483;47.384;8.860;2023-02-28T01:46:07;94758.41;;;-5.17;49.77
74921;BME280;63483;47.384;8.860;2023-02-28T01:48:36;94758.63;;;-5.37;47.65
74921;BME280;63483;47.384;8.860;2023-02-28T01:51:09;94755.22;;;-5.54;47.41
74921;BME280;63483;47.384;8.860;2023-02-28T01:53:45;94761.09;;;-5.52;47.27
74921;BME280;63483;47.384;8.860;2023-02-28T01:56:13;94756.06;;;-5.37;51.01
74921;BME280;63483;47.384;8.860;2023-02-28T01:58:52;94751.59;;;-5.50;48.15
74921;BME280;63483;47.384;8.860;2023-02-28T02:01:19;94754.34;;;-5.21;48.01
74921;BME280;63483;47.384;8.860;2023-02-28T02:03:53;94754.13;;;-5.32;49.06
74921;BME280;63483;47.384;8.860;2023-02-28T02:06:29;94754.06;;;-5.15;47.55
74921;BME280;63483;47.384;8.860;2023-02-28T02:08:55;94749.25;;;-5.88;46.20
74921;BME280;63483;47.384;8.860;2023-02-28T02:11:21;94747.88;;;-5.60;46.95
74921;BME280;63483;47.384;8.860;2023-02-28T02:17:07;94750.97;;;-5.71;51.25
74921;BME280;63483;47.384;8.860;2023-02-28T02:20:06;94744.84;;;-5.84;48.89
74921;BME280;63483;47.384;8.860;2023-02-28T02:25:43;94740.88;;;-5.56;50.92
74921;BME280;63483;47.384;8.860;2023-02-28T02:39:53;94735.38;;;-4.53;49.40
74921;BME280;63483;47.384;8.860;2023-02-28T02:42:54;94744.50;;;-4.79;50.06
74921;BME280;63483;47.384;8.860;2023-02-28T02:45:27;94744.50;;;-4.95;50.31
74921;BME280;63483;47.384;8.860;2023-02-28T02:47:55;94736.72;;;-4.62;49.38
74921;BME280;63483;47.384;8.860;2023-02-28T02:50:31;94740.72;;;-4.42;49.44
74921;BME280;63483;47.384;8.860;2023-02-28T02:53:00;94742.41;;;-4.26;48.68
74921;BME280;63483;47.384;8.860;2023-02-28T02:55:27;94733.31;;;-4.46;48.75
74921;BME280;63483;47.384;8.860;2023-02-28T02:58:03;94735.72;;;-4.59;49.07
74921;BME280;63483;47.384;8.860;2023-02-28T03:00:35;94731.13;;;-4.68;49.87
74921;BME280;63483;47.384;8.860;2023-02-28T03:03:02;94723.34;;;-4.51;49.23
74921;BME280;63483;47.384;8.860;2023-02-28T03:05:49;94722.81;;;-4.42;48.68
74921;BME280;63483;47.384;8.860;2023-02-28T03:08:14;94718.41;;;-4.54;48.50
74921;BME280;63483;47.384;8.860;2023-02-28T03:10:45;94727.47;;;-4.48;48.94
74921;BME280;63483;47.384;8.860;2023-02-28T03:16:35;94725.63;;;-4.30;48.63
74921;BME280;63483;47.384;8.860;2023-02-28T03:21:36;94724.09;;;-4.19;48.01
74921;BME280;63483;47.384;8.860;2023-02-28T03:26:31;94726.25;;;-4.27;47.89
74921;BME280;63483;47.384;8.860;2023-02-28T03:32:29;94724.84;;;-4.47;48.20
74921;BME280;63483;47.384;8.860;2023-02-28T03:35:08;94714.03;;;-4.22;48.15
74921;BME280;63483;47.384;8.860;2023-02-28T03:37:39;94721.94;;;-4.26;47.80
74921;BME280;63483;47.384;8.860;2023-02-28T03:40:11;94723.97;;;-4.31;48.12
74921;BME280;63483;47.384;8.860;2023-02-28T03:42:40;94725.06;;;-4.51;49.15
74921;BME280;63483;47.384;8.860;2023-02-28T03:45:13;94727.97;;;-4.58;48.60
74921;BME280;63483;47.384;8.860;2023-02-28T03:48:15;94729.59;;;-4.41;48.58
74921;BME280;63483;47.384;8.860;2023-02-28T03:50:46;94731.41;;;-4.43;48.09
74921;BME280;63483;47.384;8.860;2023-02-28T03:53:22;94729.81;;;-4.60;49.22
74921;BME280;63483;47.384;8.860;2023-02-28T03:55:54;94736.03;;;-4.33;48.16
74921;BME280;63483;47.384;8.860;2023-02-28T03:58:37;94736.78;;;-4.17;48.07
74921;BME280;63483;47.384;8.860;2023-02-28T04:01:12;94736.03;;;-4.49;48.80
74921;BME280;63483;47.384;8.860;2023-02-28T04:03:40;94731.19;;;-4.54;48.46
74921;BME280;63483;47.384;8.860;2023-02-28T04:06:08;94738.94;;;-4.25;48.35
74921;BME280;63483;47.384;8.860;2023-02-28T04:08:38;94732.88;;;-4.39;48.06
74921;BME280;63483;47.384;8.860;2023-02-28T04:11:07;94736.03;;;-4.33;48.29
74921;BME280;63483;47.384;8.860;2023-02-28T04:13:38;94737.28;;;-4.41;48.14
74921;BME280;63483;47.384;8.860;2023-02-28T04:16:07;94743.88;;;-4.22;47.45
74921;BME280;63483;47.384;8.860;2023-02-28T04:18:40;94743.56;;;-4.62;48.03
74921;BME280;63483;47.384;8.860;2023-02-28T04:21:08;94749.38;;;-4.44;45.60
74921;BME280;63483;47.384;8.860;2023-02-28T04:23:33;94745.44;;;-4.50;47.11
74921;BME280;63483;47.384;8.860;2023-02-28T04:25:58;94750.34;;;-4.31;46.55
74921;BME280;63483;47.384;8.860;2023-02-28T04:28:24;94754.84;;;-4.50;54.33
74921;BME280;63483;47.384;8.860;2023-02-28T04:31:01;94757.53;;;-4.84;48.64
74921;BME280;63483;47.384;8.860;2023-02-28T04:33:27;94753.41;;;-4.70;46.16
74921;BME280;63483;47.384;8.860;2023-02-28T04:36:07;94752.22;;;-4.65;46.68
74921;BME280;63483;47.384;8.860;2023-02-28T04:38:36;94757.34;;;-5.13;44.75
74921;BME280;63483;47.384;8.860;2023-02-28T04:41:01;94757.06;;;-5.24;45.61
74921;BME280;63483;47.384;8.860;2023-02-28T04:43:27;94762.66;;;-5.33;48.42
74921;BME280;63483;47.384;8.860;2023-02-28T04:45:54;94755.78;;;-5.31;46.23
74921;BME280;63483;47.384;8.860;2023-02-28T04:48:25;94762.34;;;-5.27;48.30
74921;BME280;63483;47.384;8.860;2023-02-28T04:50:52;94764.69;;;-5.56;49.62
74921;BME280;63483;47.384;8.860;2023-02-28T04:53:18;94764.41;;;-5.85;50.72
74921;BME280;63483;47.384;8.860;2023-02-28T04:55:44;94768.59;;;-5.66;48.64
74921;BME280;63483;47.384;8.860;2023-02-28T04:58:11;94757.59;;;-5.67;50.47
74921;BME280;63483;47.384;8.860;2023-02-28T05:00:36;94765.03;;;-5.46;49.49
74921;BME280;63483;47.384;8.860;2023-02-28T05:03:02;94776.13;;;-5.81;47.97
74921;BME280;63483;47.384;8.860;2023-02-28T05:05:27;94773.78;;;-5.34;49.39
74921;BME280;63483;47.384;8.860;2023-02-28T05:07:53;94775.88;;;-5.58;47.35
74921;BME280;63483;47.384;8.860;2023-02-28T05:10:21;94773.94;;;-5.37;48.01
74921;BME280;63483;47.384;8.860;2023-02-28T05:12:46;94778.34;;;-5.57;47.12
74921;BME280;63483;47.384;8.860;2023-02-28T05:15:13;94778.06;;;-5.68;47.51
74921;BME280;63483;47.384;8.860;2023-02-28T05:17:40;94781.78;;;-5.58;47.69
74921;BME280;63483;47.384;8.860;2023-02-28T05:20:06;94788.88;;;-5.63;49.90
74921;BME280;63483;47.384;8.860;2023-02-28T05:22:32;94786.13;;;-5.43;48.97
74921;BME280;63483;47.384;8.860;2023-02-28T05:24:57;94787.63;;;-5.38;45.60
74921;BME280;63483;47.384;8.860;2023-02-28T05:27:22;94781.75;;;-5.07;47.83
74921;BME280;63483;47.384;8.860;2023-02-28T05:29:48;94776.94;;;-5.29;58.32
74921;BME280;63483;47.384;8.860;2023-02-28T05:32:14;94784.16;;;-5.37;49.60
74921;BME280;63483;47.384;8.860;2023-02-28T05:34:40;94776.78;;;-5.26;48.38
74921;BME280;63483;47.384;8.860;2023-02-28T05:37:07;94786.75;;;-5.05;49.06
74921;BME280;63483;47.384;8.860;2023-02-28T05:39:36;94786.97;;;-5.26;46.72
74921;BME280;63483;47.384;8.860;2023-02-28T05:42:01;94784.56;;;-4.96;48.62
74921;BME280;63483;47.384;8.860;2023-02-28T05:44:26;94791.03;;;-5.22;47.53
74921;BME280;63483;47.384;8.860;2023-02-28T05:46:52;94782.72;;;-5.10;47.38
74921;BME280;63483;47.384;8.860;2023-02-28T05:49:17;94792.88;;;-5.42;46.63
74921;BME280;63483;47.384;8.860;2023-02-28T05:51:42;94797.72;;;-5.70;45.51
74921;BME280;63483;47.384;8.860;2023-02-28T05:54:08;94794.41;;;-5.55;49.32
74921;BME280;63483;47.384;8.860;2023-02-28T05:56:33;94790.88;;;-5.70;47.41
74921;BME280;63483;47.384;8.860;2023-02-28T05:59:04;94797.72;;;-5.70;46.39
74921;BME280;63483;47.384;8.860;2023-02-28T06:01:38;94807.75;;;-5.50;48.50
74921;BME280;63483;47.384;8.860;2023-02-28T06:04:07;94803.75;;;-5.89;50.92
74921;BME280;63483;47.384;8.860;2023-02-28T06:06:33;94814.59;;;-5.50;49.00
74921;BME280;63483;47.384;8.860;2023-02-28T06:09:03;94803.09;;;-5.42;47.13
74921;BME280;63483;47.384;8.860;2023-02-28T06:11:29;94807.78;;;-5.67;48.99
74921;BME280;63483;47.384;8.860;2023-02-28T06:13:56;94813.19;;;-5.73;49.60
74921;BME280;63483;47.384;8.860;2023-02-28T06:16:22;94812.41;;;-5.58;49.66
74921;BME280;63483;47.384;8.860;2023-02-28T06:18:47;94814.50;;;-5.31;50.25
74921;BME280;63483;47.384;8.860;2023-02-28T06:21:13;94807.53;;;-5.12;49.88
74921;BME280;63483;47.384;8.860;2023-02-28T06:23:38;94812.59;;;-4.94;49.23
74921;BME280;63483;47.384;8.860;2023-02-28T06:26:04;94816.44;;;-4.71;49.39
74921;BME280;63483;47.384;8.860;2023-02-28T06:28:29;94827.59;;;-4.56;48.36
74921;BME280;63483;47.384;8.860;2023-02-28T06:30:55;94816.38;;;-4.38;48.45
74921;BME280;63483;47.384;8.860;2023-02-28T06:33:20;94818.03;;;-4.37;48.32
74921;BME280;63483;47.384;8.860;2023-02-28T06:35:52;94827.25;;;-4.34;48.05
74921;BME280;63483;47.384;8.860;2023-02-28T06:38:18;94829.66;;;-4.47;48.32
74921;BME280;63483;47.384;8.860;2023-02-28T06:40:44;94835.00;;;-4.36;47.91
74921;BME280;63483;47.384;8.860;2023-02-28T06:43:09;94836.31;;;-4.28;47.61
74921;BME280;63483;47.384;8.860;2023-02-28T06:45:42;94838.63;;;-4.24;47.82
74921;BME280;63483;47.384;8.860;2023-02-28T06:48:07;94844.88;;;-4.13;47.65
74921;BME280;63483;47.384;8.860;2023-02-28T06:50:32;94844.06;;;-4.14;48.11
74921;BME280;63483;47.384;8.860;2023-02-28T06:52:58;94847.19;;;-4.09;47.29
74921;BME280;63483;47.384;8.860;2023-02-28T06:55:23;94848.41;;;-4.16;47.59
74921;BME280;63483;47.384;8.860;2023-02-28T06:57:49;94851.91;;;-4.17;47.09
74921;BME280;63483;47.384;8.860;2023-02-28T07:00:15;94849.72;;;-4.09;48.00
74921;BME280;63483;47.384;8.860;2023-02-28T07:02:41;94849.03;;;-4.43;46.88
74921;BME280;63483;47.384;8.860;2023-02-28T07:05:06;94847.47;;;-4.45;46.20
74921;BME280;63483;47.384;8.860;2023-02-28T07:07:32;94859.25;;;-4.75;46.25
74921;BME280;63483;47.384;8.860;2023-02-28T07:09:58;94861.22;;;-4.80;45.62
74921;BME280;63483;47.384;8.860;2023-02-28T07:12:23;94865.19;;;-4.74;48.31
74921;BME280;63483;47.384;8.860;2023-02-28T07:14:49;94867.63;;;-4.89;45.35
74921;BME280;63483;47.384;8.860;2023-02-28T07:17:14;94869.53;;;-4.92;48.89
74921;BME280;63483;47.384;8.860;2023-02-28T07:19:39;94871.53;;;-5.15;52.81
74921;BME280;63483;47.384;8.860;2023-02-28T07:22:05;94867.00;;;-5.10;50.10
74921;BME280;63483;47.384;8.860;2023-02-28T07:24:31;94872.03;;;-5.08;45.66
74921;BME280;63483;47.384;8.860;2023-02-28T07:26:57;94870.41;;;-4.93;46.97
74921;BME280;63483;47.384;8.860;2023-02-28T07:29:22;94874.66;;;-5.10;46.87
74921;BME280;63483;47.384;8.860;2023-02-28T07:31:47;94876.81;;;-5.18;46.09
74921;BME280;63483;47.384;8.860;2023-02-28T07:34:13;94883.63;;;-5.36;45.48
74921;BME280;63483;47.384;8.860;2023-02-28T07:36:39;94881.28;;;-5.05;49.21
74921;BME280;63483;47.384;8.860;2023-02-28T07:39:04;94876.06;;;-5.37;48.99
74921;BME280;63483;47.384;8.860;2023-02-28T07:41:30;94881.44;;;-5.09;49.46
74921;BME280;63483;47.384;8.860;2023-02-28T07:43:58;94873.81;;;-5.26;48.77
74921;BME280;63483;47.384;8.860;2023-02-28T07:46:25;94884.78;;;-5.42;50.70
74921;BME280;63483;47.384;8.860;2023-02-28T07:48:51;94873.91;;;-5.45;48.58
74921;BME280;63483;47.384;8.860;2023-02-28T07:51:18;94880.75;;;-5.46;49.13
74921;BME280;63483;47.384;8.860;2023-02-28T07:53:43;94881.31;;;-5.40;49.64
74921;BME280;63483;47.384;8.860;2023-02-28T07:56:09;94888.47;;;-5.65;50.86
74921;BME280;63483;47.384;8.860;2023-02-28T07:58:36;94887.13;;;-5.72;50.50
74921;BME280;63483;47.384;8.860;2023-02-28T08:01:06;94877.44;;;-5.65;53.74
74921;BME280;63483;47.384;8.860;2023-02-28T08:03:32;94878.88;;;-6.14;52.03
74921;BME280;63483;47.384;8.860;2023-02-28T08:05:57;94881.72;;;-5.66;47.85
74921;BME280;63483;47.384;8.860;2023-02-28T08:08:23;94888.47;;;-5.30;50.62
74921;BME280;63483;47.384;8.860;2023-02-28T08:10:48;94900.78;;;-5.38;48.95
74921;BME280;63483;47.384;8.860;2023-02-28T08:13:13;94906.03;;;-4.90;48.40
74921;BME280;63483;47.384;8.860;2023-02-28T08:15:41;94900.22;;;-4.76;55.41
74921;BME280;63483;47.384;8.860;2023-02-28T08:18:08;94902.69;;;-5.08;49.95
74921;BME280;63483;47.384;8.860;2023-02-28T08:20:33;94911.06;;;-5.22;48.94
74921;BME280;63483;47.384;8.860;2023-02-28T08:22:58;94907.91;;;-5.27;49.23
74921;BME280;63483;47.384;8.860;2023-02-28T08:25:24;94905.25;;;-5.26;47.88
74921;BME280;63483;47.384;8.860;2023-02-28T08:27:51;94904.28;;;-5.58;50.15
74921;BME280;63483;47.384;8.860;2023-02-28T08:30:17;94900.34;;;-5.64;50.46
74921;BME280;63483;47.384;8.860;2023-02-28T08:32:42;94906.34;;;-5.47;49.06
74921;BME280;63483;47.384;8.860;2023-02-28T08:35:08;94906.41;;;-5.31;48.54
74921;BME280;63483;47.384;8.860;2023-02-28T08:37:36;94905.06;;;-5.56;49.06
74921;BME280;63483;47.384;8.860;2023-02-28T08:40:02;94905.34;;;-5.80;49.67
74921;BME280;63483;47.384;8.860;2023-02-28T08:42:29;94898.00;;;-5.51;48.83
74921;BME280;63483;47.384;8.860;2023-02-28T08:44:54;94896.78;;;-5.44;49.05
74921;BME280;63483;47.384;8.860;2023-02-28T08:47:19;94889.97;;;-5.61;48.87
74921;BME280;63483;47.384;8.860;2023-02-28T08:49:45;94889.38;;;-5.48;49.07
74921;BME280;63483;47.384;8.860;2023-02-28T08:52:11;94888.09;;;-5.74;51.29
74921;BME280;63483;47.384;8.860;2023-02-28T08:54:36;94892.53;;;-5.43;49.01
74921;BME280;63483;47.384;8.860;2023-02-28T08:57:02;94894.63;;;-5.00;49.30
74921;BME280;63483;47.384;8.860;2023-02-28T08:59:28;94895.00;;;-5.42;49.37
74921;BME280;63483;47.384;8.860;2023-02-28T09:01:54;94908.28;;;-5.35;48.37
74921;BME280;63483;47.384;8.860;2023-02-28T09:04:20;94907.47;;;-5.53;50.12
74921;BME280;63483;47.384;8.860;2023-02-28T09:06:45;94909.03;;;-5.33;49.58
74921;BME280;63483;47.384;8.860;2023-02-28T09:09:11;94906.94;;;-5.60;49.23
74921;BME280;63483;47.384;8.860;2023-02-28T09:11:37;94913.47;;;-5.36;48.24
74921;BME280;63483;47.384;8.860;2023-02-28T09:14:03;94916.88;;;-5.02;49.65
74921;BME280;63483;47.384;8.860;2023-02-28T09:16:29;94927.41;;;-4.91;47.89
74921;BME280;63483;47.384;8.860;2023-02-28T09:18:56;94930.22;;;-4.97;47.83
74921;BME280;63483;47.384;8.860;2023-02-28T09:21:21;94921.41;;;-5.08;48.91
74921;BME280;63483;47.384;8.860;2023-02-28T09:23:51;94927.50;;;-4.77;54.47
74921;BME280;63483;47.384;8.860;2023-02-28T09:26:22;94921.78;;;-5.15;48.02
74921;BME280;63483;47.384;8.860;2023-02-28T09:28:48;94927.75;;;-4.99;48.37
74921;BME280;63483;47.384;8.860;2023-02-28T09:31:16;94930.94;;;-4.94;47.55
74921;BME280;63483;47.384;8.860;2023-02-28T09:33:46;94932.03;;;-5.50;50.12
74921;BME280;63483;47.384;8.860;2023-02-28T09:36:11;94935.00;;;-5.07;48.58
74921;BME280;63483;47.384;8.860;2023-02-28T09:38:37;94926.72;;;-4.95;48.09
74921;BME280;63483;47.384;8.860;2023-02-28T09:41:08;94932.44;;;-5.60;48.89
74921;BME280;63483;47.384;8.860;2023-02-28T09:43:38;94937.34;;;-5.37;50.01
74921;BME280;63483;47.384;8.860;2023-02-28T09:46:28;94938.53;;;-5.27;48.99
74921;BME280;63483;47.384;8.860;2023-02-28T09:48:56;94934.03;;;-5.22;49.03
74921;BME280;63483;47.384;8.860;2023-02-28T09:51:58;94934.84;;;-5.04;48.40
74921;BME280;63483;47.384;8.860;2023-02-28T09:54:29;94938.44;;;-5.08;47.92
74921;BME280;63483;47.384;8.860;2023-02-28T09:59:31;94944.41;;;-5.08;48.98
74921;BME280;63483;47.384;8.860;2023-02-28T10:05:12;94952.59;;;-4.67;49.23
74921;BME280;63483;47.384;8.860;2023-02-28T10:10:39;94943.75;;;-4.28;47.35
74921;BME280;63483;47.384;8.860;2023-02-28T10:16:14;94939.78;;;-4.02;47.60
74921;BME280;63483;47.384;8.860;2023-02-28T10:18:48;94944.81;;;-4.01;46.76
74921;BME280;63483;47.384;8.860;2023-02-28T10:21:31;94943.06;;;-3.84;46.71
74921;BME280;63483;47.384;8.860;2023-02-28T10:24:21;94951.00;;;-3.73;46.80
74921;BME280;63483;47.384;8.860;2023-02-28T10:26:48;94950.47;;;-3.63;46.77
74921;BME280;63483;47.384;8.860;2023-02-28T10:29:14;94956.94;;;-3.42;46.05
74921;BME280;63483;47.384;8.860;2023-02-28T10:31:40;94962.13;;;-3.27;46.33
74921;BME280;63483;47.384;8.860;2023-02-28T10:34:07;94960.50;;;-3.14;45.66
74921;BME280;63483;47.384;8.860;2023-02-28T10:36:32;94967.56;;;-3.18;45.08
74921;BME280;63483;47.384;8.860;2023-02-28T10:38:58;94957.56;;;-3.22;45.51
74921;BME280;63483;47.384;8.860;2023-02-28T10:41:32;94963.34;;;-3.49;45.76
74921;BME280;63483;47.384;8.860;2023-02-28T10:44:22;94959.31;;;-3.53;45.87
74921;BME280;63483;47.384;8.860;2023-02-28T10:46:48;94964.16;;;-3.49;46.17
74921;BME280;63483;47.384;8.860;2023-02-28T10:49:20;94961.34;;;-3.44;45.57
74921;BME280;63483;47.384;8.860;2023-02-28T10:51:47;94969.28;;;-3.49;45.83
74921;BME280;63483;47.384;8.860;2023-02-28T10:54:33;94962.53;;;-3.66;46.70
74921;BME280;63483;47.384;8.860;2023-02-28T10:57:12;94963.63;;;-3.86;46.26
74921;BME280;63483;47.384;8.860;2023-02-28T10:59:39;94960.47;;;-3.75;46.70
74921;BME280;63483;47.384;8.860;2023-02-28T11:02:35;94951.59;;;-3.37;45.48
74921;BME280;63483;47.384;8.860;2023-02-28T11:05:01;94958.75;;;-3.74;47.42
74921;BME280;63483;47.384;8.860;2023-02-28T11:07:27;94955.28;;;-4.21;47.14
74921;BME280;63483;47.384;8.860;2023-02-28T11:09:55;94953.47;;;-4.19;46.02
74921;BME280;63483;47.384;8.860;2023-02-28T11:12:37;94955.28;;;-4.21;45.26
74921;BME280;63483;47.384;8.860;2023-02-28T11:15:07;94963.53;;;-4.32;45.61
74921;BME280;63483;47.384;8.860;2023-02-28T11:17:43;94958.06;;;-4.42;44.46
74921;BME280;63483;47.384;8.860;2023-02-28T11:20:20;94958.38;;;-4.64;47.66
74921;BME280;63483;47.384;8.860;2023-02-28T11:22:47;94970.41;;;-4.66;47.63
74921;BME280;63483;47.384;8.860;2023-02-28T11:25:33;94956.75;;;-4.49;48.87
74921;BME280;63483;47.384;8.860;2023-02-28T11:28:23;94958.09;;;-4.26;48.07
74921;BME280;63483;47.384;8.860;2023-02-28T11:33:52;94980.88;;;-4.70;48.67
74921;BME280;63483;47.384;8.860;2023-02-28T11:36:23;94980.00;;;-5.04;49.51
74921;BME280;63483;47.384;8.860;2023-02-28T11:38:50;94961.75;;;-4.63;46.13
74921;BME280;63483;47.384;8.860;2023-02-28T11:46:37;94967.06;;;-4.84;47.05
74921;BME280;63483;47.384;8.860;2023-02-28T11:52:21;94955.91;;;-4.83;48.68
74921;BME280;63483;47.384;8.860;2023-02-28T11:55:05;94949.28;;;-4.69;46.83
74921;BME280;63483;47.384;8.860;2023-02-28T12:00:40;94954.16;;;-4.98;48.10
74921;BME280;63483;47.384;8.860;2023-02-28T12:06:05;94961.47;;;-4.75;47.67
74921;BME280;63483;47.384;8.860;2023-02-28T12:09:03;94962.66;;;-4.64;48.58
74921;BME280;63483;47.384;8.860;2023-02-28T12:11:46;94960.66;;;-4.26;45.99
74921;BME280;63483;47.384;8.860;2023-02-28T12:17:00;94963.72;;;-4.35;48.32
74921;BME280;63483;47.384;8.860;2023-02-28T12:28:02;94951.00;;;-3.89;47.80
74921;BME280;63483;47.384;8.860;2023-02-28T12:30:32;94951.66;;;-3.85;47.79
74921;BME280;63483;47.384;8.860;2023-02-28T12:33:16;94947.53;;;-4.04;47.37
74921;BME280;63483;47.384;8.860;2023-02-28T12:35:55;94944.91;;;-4.18;45.36
74921;BME280;63483;47.384;8.860;2023-02-28T12:38:27;94938.22;;;-4.05;47.45
74921;BME280;63483;47.384;8.860;2023-02-28T12:41:00;94937.66;;;-4.10;47.02
74921;BME280;63483;47.384;8.860;2023-02-28T12:43:37;94939.81;;;-4.51;48.10
74921;BME280;63483;47.384;8.860;2023-02-28T12:46:12;94941.59;;;-4.36;47.93
74921;BME280;63483;47.384;8.860;2023-02-28T12:48:46;94950.13;;;-4.53;48.32
74921;BME280;63483;47.384;8.860;2023-02-28T12:51:15;94961.03;;;-4.49;48.70
74921;BME280;63483;47.384;8.860;2023-02-28T12:53:53;94947.88;;;-4.10;48.24
74921;BME280;63483;47.384;8.860;2023-02-28T12:56:35;94947.88;;;-4.10;48.63
74921;BME280;63483;47.384;8.860;2023-02-28T12:59:23;94960.06;;;-4.31;45.15
74921;BME280;63483;47.384;8.860;2023-02-28T13:02:02;94954.78;;;-4.44;46.56
74921;BME280;63483;47.384;8.860;2023-02-28T13:10:02;94949.84;;;-4.47;48.70
74921;BME280;63483;47.384;8.860;2023-02-28T13:12:29;94941.78;;;-4.23;46.38
74921;BME280;63483;47.384;8.860;2023-02-28T13:15:27;94941.69;;;-4.38;47.04
74921;BME280;63483;47.384;8.860;2023-02-28T13:17:56;94949.13;;;-4.66;49.25
74921;BME280;63483;47.384;8.860;2023-02-28T13:20:25;94944.59;;;-4.61;48.33
74921;BME280;63483;47.384;8.860;2023-02-28T13:22:53;94942.44;;;-4.04;47.91
74921;BME280;63483;47.384;8.860;2023-02-28T13:27:49;94935.41;;;-4.32;45.19
74921;BME280;63483;47.384;8.860;2023-02-28T13:46:28;94951.81;;;-3.72;47.42
74921;BME280;63483;47.384;8.860;2023-02-28T13:48:54;94938.94;;;-3.71;47.61
74921;BME280;63483;47.384;8.860;2023-02-28T13:51:39;94939.19;;;-3.45;47.20
74921;BME280;63483;47.384;8.860;2023-02-28T13:54:58;94945.59;;;-3.52;47.28
74921;BME280;63483;47.384;8.860;2023-02-28T14:05:17;94944.84;;;-3.54;47.25
74921;BME280;63483;47.384;8.860;2023-02-28T14:07:46;94947.44;;;-3.40;46.79
74921;BME280;63483;47.384;8.860;2023-02-28T14:10:36;94952.44;;;-3.69;46.83
74921;BME280;63483;47.384;8.860;2023-02-28T14:13:03;94950.47;;;-3.63;47.17
74921;BME280;63483;47.384;8.860;2023-02-28T14:15:45;94955.34;;;-3.59;47.47
74921;BME280;63483;47.384;8.860;2023-02-28T14:18:19;94951.69;;;-3.24;46.78
74921;BME280;63483;47.384;8.860;2023-02-28T14:20:47;94954.25;;;-3.39;47.39
74921;BME280;63483;47.384;8.860;2023-02-28T14:23:26;94962.72;;;-3.38;46.79
74921;BME280;63483;47.384;8.860;2023-02-28T14:29:09;94950.25;;;-3.28;46.52
74921;BME280;63483;47.384;8.860;2023-02-28T14:31:45;94953.53;;;-3.26;46.72
74921;BME280;63483;47.384;8.860;2023-02-28T14:34:43;94948.00;;;-3.04;45.94
74921;BME280;63483;47.384;8.860;2023-02-28T14:37:16;94957.16;;;-3.31;46.80
74921;BME280;63483;47.384;8.860;2023-02-28T14:39:44;94967.44;;;-3.46;46.98
74921;BME280;63483;47.384;8.860;2023-02-28T14:42:46;94966.53;;;-3.76;46.75
74921;BME280;63483;47.384;8.860;2023-02-28T14:45:19;94972.13;;;-3.85;46.87
74921;BME280;63483;47.384;8.860;2023-02-28T14:47:46;94985.19;;;-4.22;47.93
74921;BME280;63483;47.384;8.860;2023-02-28T14:50:20;94977.34;;;-4.19;48.58
74921;BME280;63483;47.384;8.860;2023-02-28T14:52:45;94975.94;;;-4.24;47.68
74921;BME280;63483;47.384;8.860;2023-02-28T14:55:17;94974.06;;;-4.54;49.04
74921;BME280;63483;47.384;8.860;2023-02-28T14:57:52;94986.31;;;-4.61;50.16
74921;BME280;63483;47.384;8.860;2023-02-28T15:00:24;94976.66;;;-4.22;48.15
74921;BME280;63483;47.384;8.860;2023-02-28T15:02:50;94980.97;;;-4.56;49.47